createdAt,value
2018-05-02T00:00:22.506Z,96.60
2018-05-02T00:02:51.050Z,96.10
2018-05-02T00:05:20.248Z,96.30
2018-05-02T00:07:49.668Z,96.80
2018-05-02T00:10:18.369Z,96.80
2018-05-02T00:12:47.078Z,96.70
2018-05-02T00:15:15.780Z,96.20
2018-05-02T00:17:44.205Z,97.10
2018-05-02T00:20:12.923Z,96.90
2018-05-02T00:22:42.409Z,97.20
2018-05-02T00:25:10.859Z,97.20
2018-05-02T00:27:39.552Z,96.80
2018-05-02T00:30:08.775Z,96.50
2018-05-02T00:32:37.293Z,96.50
2018-05-02T00:35:05.721Z,96.50
2018-05-02T00:37:34.433Z,97.10
2018-05-02T00:40:03.162Z,96.90
2018-05-02T00:42:31.613Z,96.80
2018-05-02T00:45:00.051Z,97.10
2018-05-02T00:47:28.959Z,96.70
2018-05-02T00:49:57.692Z,96.40
2018-05-02T00:52:26.373Z,97.20
2018-05-02T00:54:55.093Z,96.70
2018-05-02T00:57:23.512Z,96.10
2018-05-02T00:59:51.960Z,96.70
2018-05-02T01:02:20.384Z,97.10
2018-05-02T01:04:49.833Z,97.00
2018-05-02T01:07:18.272Z,97.00
2018-05-02T01:09:46.716Z,97.20
2018-05-02T01:12:16.168Z,97.70
2018-05-02T01:14:44.760Z,97.40
2018-05-02T01:17:14.290Z,97.90
2018-05-02T01:19:42.986Z,97.90
2018-05-02T01:22:11.433Z,97.80
2018-05-02T01:24:39.949Z,97.60
2018-05-02T01:27:09.444Z,97.50
2018-05-02T01:29:38.914Z,97.60
2018-05-02T01:32:07.816Z,97.60
2018-05-02T01:34:36.536Z,97.90
2018-05-02T01:37:04.636Z,98.20
2018-05-02T01:39:33.086Z,98.30
2018-05-02T01:42:01.732Z,98.70
2018-05-02T01:44:30.932Z,98.40
2018-05-02T01:47:00.133Z,98.40
2018-05-02T01:49:28.586Z,98.40
2018-05-02T01:51:57.420Z,98.70
2018-05-02T01:54:26.360Z,98.10
2018-05-02T01:56:55.092Z,98.40
2018-05-02T01:59:23.601Z,98.50
2018-05-02T02:01:52.470Z,98.40
2018-05-02T02:04:20.904Z,98.60
2018-05-02T02:06:49.610Z,98.50
2018-05-02T02:09:18.211Z,99.00
2018-05-02T02:11:46.656Z,99.20
2018-05-02T02:14:14.936Z,99.90
2018-05-02T02:16:43.644Z,99.30
2018-05-02T02:19:12.362Z,99.20
2018-05-02T02:21:41.076Z,99.60
2018-05-02T02:24:09.598Z,98.50
2018-05-02T02:26:38.027Z,99.10
2018-05-02T02:29:06.508Z,99.50
2018-05-02T02:31:34.956Z,99.40
2018-05-02T02:34:03.681Z,99.00
2018-05-02T02:36:32.300Z,99.40
2018-05-02T02:39:00.862Z,99.90
2018-05-02T02:41:29.446Z,99.90
2018-05-02T02:43:58.174Z,99.50
2018-05-02T02:46:27.633Z,99.60
2018-05-02T02:48:56.461Z,99.60
2018-05-02T02:51:25.165Z,99.90
2018-05-02T02:53:54.638Z,99.90
2018-05-02T02:56:23.093Z,99.90
2018-05-02T02:58:51.808Z,99.80
2018-05-02T03:01:20.709Z,99.80
2018-05-02T03:03:49.422Z,99.90
2018-05-02T03:06:18.119Z,99.90
2018-05-02T03:08:46.633Z,99.90
2018-05-02T03:11:15.125Z,99.90
2018-05-02T03:13:43.549Z,99.90
2018-05-02T03:16:12.262Z,99.90
2018-05-02T03:18:40.962Z,99.90
2018-05-02T03:21:10.073Z,99.90
2018-05-02T03:23:39.540Z,99.90
2018-05-02T03:26:08.744Z,99.90
2018-05-02T03:28:37.495Z,99.90
2018-05-02T03:31:05.920Z,99.90
2018-05-02T03:33:34.504Z,99.90
2018-05-02T03:36:03.192Z,99.90
2018-05-02T03:38:31.386Z,99.90
2018-05-02T03:41:00.868Z,99.90
2018-05-02T03:43:29.594Z,99.90
2018-05-02T03:45:58.036Z,99.90
2018-05-02T03:48:26.490Z,99.90
2018-05-02T03:50:55.679Z,99.90
2018-05-02T03:53:24.385Z,99.90
2018-05-02T03:55:52.773Z,99.90
2018-05-02T03:58:21.386Z,99.90
2018-05-02T04:01:01.802Z,99.90
2018-05-02T04:03:41.946Z,99.90
2018-05-02T04:06:23.281Z,99.90
2018-05-02T04:08:51.500Z,99.90
2018-05-02T04:11:20.225Z,99.90
2018-05-02T04:13:48.692Z,99.90
2018-05-02T04:16:17.489Z,99.90
2018-05-02T04:18:45.727Z,99.90
2018-05-02T04:21:14.736Z,99.90
2018-05-02T04:23:43.962Z,99.90
2018-05-02T04:26:12.416Z,99.90
2018-05-02T04:28:41.009Z,99.90
2018-05-02T04:31:10.500Z,99.90
2018-05-02T04:33:39.207Z,99.90
2018-05-02T04:36:07.884Z,99.90
2018-05-02T04:38:36.820Z,99.90
2018-05-02T04:41:05.403Z,99.90
2018-05-02T04:43:34.273Z,99.90
2018-05-02T04:46:02.654Z,99.90
2018-05-02T04:48:31.314Z,99.90
2018-05-02T04:51:00.495Z,99.90
2018-05-02T04:53:29.795Z,99.90
2018-05-02T04:55:58.349Z,99.90
2018-05-02T04:58:26.846Z,99.90
2018-05-02T05:00:55.499Z,99.90
2018-05-02T05:03:23.960Z,99.90
2018-05-02T05:05:52.395Z,99.90
2018-05-02T05:08:21.617Z,99.90
2018-05-02T05:10:50.105Z,99.90
2018-05-02T05:13:18.533Z,99.90
2018-05-02T05:15:47.157Z,99.90
2018-05-02T05:18:15.600Z,99.90
2018-05-02T05:20:44.501Z,99.90
2018-05-02T05:23:13.221Z,99.90
2018-05-02T05:25:41.801Z,99.90
2018-05-02T05:28:11.345Z,99.90
2018-05-02T05:30:40.162Z,99.90
2018-05-02T05:33:08.929Z,99.90
2018-05-02T05:35:37.460Z,99.90
2018-05-02T05:38:05.941Z,99.30
2018-05-02T05:40:34.376Z,99.90
2018-05-02T05:43:03.101Z,99.90
2018-05-02T05:45:31.805Z,99.20
2018-05-02T05:48:00.321Z,99.40
2018-05-02T05:50:28.761Z,99.90
2018-05-02T05:52:57.193Z,99.50
2018-05-02T05:55:26.733Z,99.40
2018-05-02T05:57:55.167Z,99.80
2018-05-02T06:00:23.597Z,99.40
2018-05-02T06:02:52.053Z,99.00
2018-05-02T06:05:20.492Z,99.40
2018-05-02T06:07:48.930Z,99.60
2018-05-02T06:10:17.376Z,99.90
2018-05-02T06:12:46.602Z,98.10
2018-05-02T06:15:15.993Z,98.40
2018-05-02T06:17:44.695Z,98.30
2018-05-02T06:20:14.161Z,99.00
2018-05-02T06:22:43.139Z,99.00
2018-05-02T06:25:12.882Z,98.80
2018-05-02T06:27:41.531Z,98.70
2018-05-02T06:30:10.249Z,98.30
2018-05-02T06:32:38.949Z,98.30
2018-05-02T06:35:07.384Z,97.30
2018-05-02T06:37:36.194Z,97.00
2018-05-02T06:40:04.429Z,97.60
2018-05-02T06:42:33.103Z,97.70
2018-05-02T06:45:01.577Z,98.00
2018-05-02T06:47:30.013Z,96.40
2018-05-02T06:49:58.936Z,97.50
2018-05-02T06:52:27.369Z,97.10
2018-05-02T06:54:56.069Z,96.70
2018-05-02T06:57:25.276Z,96.80
2018-05-02T06:59:53.960Z,96.70
2018-05-02T07:02:22.400Z,96.40
2018-05-02T07:04:50.836Z,96.90
2018-05-02T07:07:19.264Z,95.90
2018-05-02T07:09:47.975Z,95.00
2018-05-02T07:12:16.672Z,94.50
2018-05-02T07:14:45.136Z,95.00
2018-05-02T07:17:14.320Z,95.50
2018-05-02T07:19:42.855Z,95.40
2018-05-02T07:22:11.305Z,94.30
2018-05-02T07:24:40.018Z,95.40
2018-05-02T07:27:08.464Z,94.10
2018-05-02T07:29:37.164Z,93.70
2018-05-02T07:32:05.616Z,94.30
2018-05-02T07:34:34.336Z,93.40
2018-05-02T07:37:02.773Z,94.00
2018-05-02T07:39:32.225Z,94.30
2018-05-02T07:42:01.261Z,94.50
2018-05-02T07:44:29.757Z,94.50
2018-05-02T07:46:58.397Z,94.00
2018-05-02T07:49:27.146Z,95.80
2018-05-02T07:51:55.607Z,94.90
2018-05-02T07:54:24.356Z,95.90
2018-05-02T07:56:53.481Z,96.00
2018-05-02T07:59:22.361Z,96.00
2018-05-02T08:01:51.089Z,96.50
2018-05-02T08:04:20.553Z,96.20
2018-05-02T08:06:49.263Z,96.20
2018-05-02T08:09:20.590Z,95.90
2018-05-02T08:11:49.966Z,95.90
2018-05-02T08:14:18.409Z,95.90
2018-05-02T08:16:46.851Z,96.50
2018-05-02T08:19:15.869Z,96.50
2018-05-02T08:21:45.163Z,98.30
2018-05-02T08:24:13.599Z,98.30
2018-05-02T08:26:42.243Z,97.60
2018-05-02T08:29:10.796Z,98.60
2018-05-02T08:31:40.029Z,99.90
2018-05-02T08:34:08.481Z,99.90
2018-05-02T08:36:36.584Z,99.90
2018-05-02T08:39:04.525Z,99.90
2018-05-02T08:41:32.976Z,99.90
2018-05-02T08:44:01.961Z,99.50
2018-05-02T08:46:30.677Z,99.90
2018-05-02T08:48:59.124Z,97.50
2018-05-02T08:51:27.248Z,97.30
2018-05-02T08:53:55.380Z,95.30
2018-05-02T08:56:24.102Z,93.50
2018-05-02T08:58:52.797Z,91.20
2018-05-02T09:01:21.956Z,91.30
2018-05-02T09:03:50.762Z,91.30
2018-05-02T09:06:19.370Z,87.60
2018-05-02T09:08:47.816Z,87.30
2018-05-02T09:11:16.262Z,86.20
2018-05-02T09:13:44.802Z,85.90
2018-05-02T09:16:13.492Z,90.20
2018-05-02T09:18:42.957Z,90.40
2018-05-02T09:21:11.647Z,90.40
2018-05-02T09:23:40.265Z,90.80
2018-05-02T09:26:08.983Z,89.60
2018-05-02T09:28:37.687Z,91.10
2018-05-02T09:31:06.906Z,89.10
2018-05-02T09:33:35.333Z,89.10
2018-05-02T09:36:04.017Z,90.90
2018-05-02T09:38:32.769Z,90.10
2018-05-02T09:41:01.199Z,88.80
2018-05-02T09:43:30.437Z,88.50
2018-05-02T09:45:59.224Z,88.40
2018-05-02T09:48:27.790Z,90.40
2018-05-02T09:50:56.411Z,90.60
2018-05-02T09:53:24.510Z,90.20
2018-05-02T09:55:53.429Z,88.40
2018-05-02T09:58:22.600Z,87.60
2018-05-02T10:00:51.334Z,87.50
2018-05-02T10:03:20.091Z,87.40
2018-05-02T10:05:49.605Z,86.10
2018-05-02T10:08:18.060Z,86.20
2018-05-02T10:10:46.748Z,86.40
2018-05-02T10:13:15.640Z,83.60
2018-05-02T10:15:45.259Z,86.60
2018-05-02T10:18:15.080Z,85.80
2018-05-02T10:20:43.520Z,85.90
2018-05-02T10:23:11.989Z,87.70
2018-05-02T10:25:40.420Z,88.30
2018-05-02T10:28:08.792Z,88.90
2018-05-02T10:30:38.130Z,88.20
2018-05-02T10:33:06.555Z,88.20
2018-05-02T10:35:34.984Z,87.60
2018-05-02T10:38:04.725Z,90.20
2018-05-02T10:40:33.434Z,90.10
2018-05-02T10:43:01.869Z,88.50
2018-05-02T10:45:31.348Z,89.90
2018-05-02T10:47:59.792Z,89.90
2018-05-02T10:50:28.331Z,90.40
2018-05-02T10:52:57.090Z,90.60
2018-05-02T10:55:25.530Z,90.70
2018-05-02T10:57:53.985Z,89.50
2018-05-02T11:00:22.805Z,90.00
2018-05-02T11:02:51.289Z,90.90
2018-05-02T11:05:20.751Z,90.50
2018-05-02T11:07:49.195Z,90.50
2018-05-02T11:10:17.797Z,90.10
2018-05-02T11:12:46.228Z,89.70
2018-05-02T11:15:15.185Z,90.30
2018-05-02T11:17:44.016Z,90.30
2018-05-02T11:20:12.681Z,89.40
2018-05-02T11:22:41.537Z,88.70
2018-05-02T11:25:10.010Z,90.00
2018-05-02T11:27:38.449Z,88.70
2018-05-02T11:30:07.665Z,90.70
2018-05-02T11:32:36.297Z,90.60
2018-05-02T11:35:04.413Z,90.10
2018-05-02T11:37:33.113Z,87.90
2018-05-02T11:40:01.558Z,89.50
2018-05-02T11:42:30.289Z,89.50
2018-05-02T11:44:58.421Z,88.10
2018-05-02T11:47:27.671Z,88.30
2018-05-02T11:49:56.096Z,88.00
2018-05-02T11:52:25.645Z,88.60
2018-05-02T11:54:55.140Z,89.60
2018-05-02T11:57:23.929Z,89.60
2018-05-02T11:59:52.380Z,87.80
2018-05-02T12:02:20.977Z,86.90
2018-05-02T12:04:49.481Z,80.30
2018-05-02T12:07:18.956Z,76.20
2018-05-02T12:09:48.156Z,66.10
2018-05-02T12:12:16.882Z,66.10
2018-05-02T12:14:45.597Z,67.30
2018-05-02T12:17:14.224Z,60.80
2018-05-02T12:19:43.723Z,62.10
2018-05-02T12:22:12.157Z,62.30
2018-05-02T12:24:40.580Z,59.40
2018-05-02T12:27:09.024Z,60.30
2018-05-02T12:29:37.760Z,61.30
2018-05-02T12:32:07.259Z,63.40
2018-05-02T12:34:35.962Z,63.20
2018-05-02T12:37:04.492Z,64.00
2018-05-02T12:39:33.681Z,65.40
2018-05-02T12:42:02.152Z,65.30
2018-05-02T12:44:30.862Z,67.70
2018-05-02T12:47:00.374Z,65.20
2018-05-02T12:49:28.824Z,65.20
2018-05-02T12:51:57.249Z,68.00
2018-05-02T12:54:25.923Z,68.20
2018-05-02T12:56:54.654Z,63.90
2018-05-02T12:59:23.371Z,68.10
2018-05-02T13:01:52.583Z,68.10
2018-05-02T13:04:21.785Z,69.30
2018-05-02T13:06:50.533Z,69.10
2018-05-02T13:09:19.258Z,69.10
2018-05-02T13:11:47.713Z,67.30
2018-05-02T13:14:16.425Z,67.00
2018-05-02T13:16:44.873Z,66.70
2018-05-02T13:19:13.345Z,67.60
2018-05-02T13:21:41.789Z,66.20
2018-05-02T13:24:10.436Z,68.30
2018-05-02T13:26:39.763Z,67.30
2018-05-02T13:29:09.222Z,67.70
2018-05-02T13:31:37.674Z,67.60
2018-05-02T13:34:05.792Z,67.50
2018-05-02T13:36:34.221Z,67.40
2018-05-02T13:39:02.736Z,68.20
2018-05-02T13:41:31.942Z,69.00
2018-05-02T13:44:01.162Z,68.90
2018-05-02T13:46:29.953Z,68.90
2018-05-02T13:48:58.672Z,70.80
2018-05-02T13:51:28.314Z,71.30
2018-05-02T13:53:57.512Z,71.70
2018-05-02T13:56:25.812Z,71.60
2018-05-02T13:58:54.293Z,72.50
2018-05-02T14:01:22.881Z,72.50
2018-05-02T14:03:51.380Z,73.80
2018-05-02T14:06:20.856Z,73.60
2018-05-02T14:08:49.316Z,73.50
2018-05-02T14:11:18.542Z,74.70
2018-05-02T14:13:46.992Z,74.70
2018-05-02T14:16:16.224Z,75.40
2018-05-02T14:18:44.852Z,75.40
2018-05-02T14:21:13.385Z,76.60
2018-05-02T14:23:42.106Z,75.00
2018-05-02T14:26:10.554Z,76.80
2018-05-02T14:28:39.796Z,79.90
2018-05-02T14:31:08.527Z,79.00
2018-05-02T14:33:36.968Z,76.50
2018-05-02T14:36:05.410Z,77.00
2018-05-02T14:38:34.096Z,76.10
2018-05-02T14:41:03.572Z,78.00
2018-05-02T14:43:32.030Z,78.00
2018-05-02T14:46:01.233Z,78.80
2018-05-02T14:48:29.510Z,78.70
2018-05-02T14:50:57.900Z,77.50
2018-05-02T14:53:26.333Z,76.90
2018-05-02T14:55:54.789Z,79.60
2018-05-02T14:58:23.233Z,76.80
2018-05-02T15:00:51.678Z,77.30
2018-05-02T15:03:20.311Z,78.30
2018-05-02T15:05:49.022Z,79.60
2018-05-02T15:08:17.577Z,80.20
2018-05-02T15:10:46.194Z,77.50
2018-05-02T15:13:15.031Z,79.40
2018-05-02T15:15:44.229Z,79.10
2018-05-02T15:18:12.999Z,78.20
2018-05-02T15:20:42.205Z,77.90
2018-05-02T15:23:10.925Z,78.00
2018-05-02T15:25:39.372Z,76.30
2018-05-02T15:28:07.724Z,78.20
2018-05-02T15:30:36.427Z,78.30
2018-05-02T15:33:04.951Z,77.10
2018-05-02T15:35:34.234Z,74.90
2018-05-02T15:38:03.094Z,74.70
2018-05-02T15:40:32.132Z,77.30
2018-05-02T15:43:00.828Z,75.50
2018-05-02T15:45:29.548Z,75.20
2018-05-02T15:47:57.989Z,77.00
2018-05-02T15:50:26.097Z,73.90
2018-05-02T15:52:54.831Z,74.00
2018-05-02T15:55:23.417Z,76.10
2018-05-02T15:57:52.211Z,75.80
2018-05-02T16:00:20.768Z,75.30
2018-05-02T16:02:49.208Z,76.80
2018-05-02T16:05:17.924Z,76.80
2018-05-02T16:07:46.504Z,78.00
2018-05-02T16:10:15.120Z,78.70
2018-05-02T16:12:45.104Z,79.20
2018-05-02T16:15:14.928Z,77.90
2018-05-02T16:17:43.353Z,77.90
2018-05-02T16:20:11.803Z,77.00
2018-05-02T16:22:41.154Z,79.20
2018-05-02T16:25:09.142Z,79.20
2018-05-02T16:27:38.375Z,77.10
2018-05-02T16:30:07.141Z,77.10
2018-05-02T16:32:35.584Z,78.60
2018-05-02T16:35:03.839Z,78.60
2018-05-02T16:37:32.292Z,79.70
2018-05-02T16:40:00.729Z,79.50
2018-05-02T16:42:29.962Z,79.30
2018-05-02T16:44:59.121Z,80.80
2018-05-02T16:47:27.979Z,80.70
2018-05-02T16:49:56.454Z,80.50
2018-05-02T16:52:25.908Z,81.20
2018-05-02T16:54:54.423Z,81.20
2018-05-02T16:57:22.880Z,81.00
2018-05-02T16:59:51.598Z,82.10
2018-05-02T17:02:20.290Z,82.40
2018-05-02T17:04:49.012Z,83.50
2018-05-02T17:07:18.218Z,84.40
2018-05-02T17:09:46.741Z,84.40
2018-05-02T17:12:15.229Z,84.90
2018-05-02T17:14:43.935Z,84.60
2018-05-02T17:17:13.402Z,83.90
2018-05-02T17:19:42.881Z,84.00
2018-05-02T17:22:12.504Z,85.00
2018-05-02T17:24:41.162Z,85.00
2018-05-02T17:27:09.521Z,84.40
2018-05-02T17:29:37.991Z,84.30
2018-05-02T17:32:07.145Z,84.50
2018-05-02T17:34:35.809Z,85.80
2018-05-02T17:37:04.642Z,85.10
2018-05-02T17:39:33.084Z,83.90
2018-05-02T17:42:01.573Z,83.90
2018-05-02T17:44:30.019Z,85.40
2018-05-02T17:46:59.449Z,85.10
2018-05-02T17:49:27.881Z,85.10
2018-05-02T17:51:56.573Z,85.60
2018-05-02T17:54:25.060Z,86.20
2018-05-02T17:56:53.756Z,87.60
2018-05-02T17:59:23.100Z,89.20
2018-05-02T18:01:52.589Z,88.00
2018-05-02T18:04:21.040Z,88.00
2018-05-02T18:06:49.760Z,88.00
2018-05-02T18:09:18.492Z,88.20
2018-05-02T18:11:47.814Z,88.70
2018-05-02T18:14:16.968Z,88.60
2018-05-02T18:16:46.016Z,88.60
2018-05-02T18:19:14.452Z,88.90
2018-05-02T18:21:43.178Z,89.20
2018-05-02T18:24:11.656Z,89.80
2018-05-02T18:26:40.113Z,89.80
2018-05-02T18:29:09.370Z,90.40
2018-05-02T18:31:37.813Z,90.40
2018-05-02T18:34:06.259Z,90.40
2018-05-02T18:36:35.059Z,90.20
2018-05-02T18:39:03.361Z,91.00
2018-05-02T18:41:32.869Z,90.60
2018-05-02T18:44:01.706Z,90.60
2018-05-02T18:46:31.288Z,90.60
2018-05-02T18:49:00.063Z,90.60
2018-05-02T18:51:28.742Z,90.50
2018-05-02T18:53:57.414Z,90.60
2018-05-02T18:56:27.022Z,90.80
2018-05-02T18:58:55.615Z,90.90
2018-05-02T19:01:25.485Z,91.20
2018-05-02T19:03:54.736Z,91.20
2018-05-02T19:06:23.506Z,91.10
2018-05-02T19:08:52.008Z,91.50
2018-05-02T19:11:21.305Z,91.50
2018-05-02T19:13:55.429Z,91.50
2018-05-02T19:16:24.696Z,91.80
2018-05-02T19:18:59.389Z,91.60
2018-05-02T19:21:28.610Z,91.80
2018-05-02T19:23:57.093Z,91.80
2018-05-02T19:26:31.696Z,91.80
2018-05-02T19:29:01.132Z,92.20
2018-05-02T19:31:34.964Z,92.20
2018-05-02T19:34:03.180Z,92.10
2018-05-02T19:36:32.449Z,92.40
2018-05-02T19:39:00.896Z,92.40
2018-05-02T19:44:35.689Z,92.80
2018-05-02T19:47:04.064Z,92.80
2018-05-02T19:49:32.800Z,93.00
2018-05-02T19:52:06.741Z,93.40
2018-05-02T19:54:35.211Z,93.80
2018-05-02T19:57:03.720Z,93.80
2018-05-02T19:59:32.604Z,94.00
2018-05-02T20:02:06.606Z,94.30
2018-05-02T20:04:35.355Z,94.50
2018-05-02T20:07:03.233Z,94.80
2018-05-02T20:09:37.072Z,95.20
2018-05-02T20:12:10.617Z,95.00
2018-05-02T20:14:39.332Z,95.40
2018-05-02T20:17:08.033Z,95.50
2018-05-02T20:19:36.736Z,95.70
2018-05-02T20:22:05.690Z,95.90
2018-05-02T20:24:34.932Z,96.30
2018-05-02T20:27:03.661Z,96.30
2018-05-02T20:29:32.101Z,96.20
2018-05-02T20:32:00.682Z,96.60
2018-05-02T20:34:29.162Z,96.60
2018-05-02T20:36:57.880Z,96.90
2018-05-02T20:39:27.343Z,97.10
2018-05-02T20:41:55.523Z,96.90
2018-05-02T20:44:24.924Z,97.70
2018-05-02T20:46:53.624Z,97.70
2018-05-02T20:49:22.371Z,97.70
2018-05-02T20:51:52.014Z,97.60
2018-05-02T20:54:20.753Z,97.50
2018-05-02T20:56:49.391Z,97.40
2018-05-02T20:59:18.094Z,97.30
2018-05-02T21:01:47.578Z,97.40
2018-05-02T21:04:16.034Z,97.40
2018-05-02T21:06:45.244Z,97.00
2018-05-02T21:09:14.496Z,97.10
2018-05-02T21:11:43.209Z,96.80
2018-05-02T21:14:11.816Z,96.60
2018-05-02T21:16:40.540Z,96.50
2018-05-02T21:19:08.985Z,96.50
2018-05-02T21:21:37.705Z,97.00
2018-05-02T21:24:06.146Z,97.30
2018-05-02T21:26:35.367Z,97.00
2018-05-02T21:29:03.485Z,97.00
2018-05-02T21:31:32.193Z,96.90
2018-05-02T21:34:01.409Z,97.00
2018-05-02T21:36:29.860Z,97.40
2018-05-02T21:38:59.093Z,97.20
2018-05-02T21:41:27.589Z,97.00
2018-05-02T21:43:56.011Z,97.10
2018-05-02T21:46:24.457Z,97.00
2018-05-02T21:48:53.160Z,97.10
2018-05-02T21:51:21.909Z,97.10
2018-05-02T21:53:50.345Z,97.40
2018-05-02T21:56:19.059Z,97.30
2018-05-02T21:58:47.500Z,97.40
2018-05-02T22:01:16.198Z,97.50
2018-05-02T22:03:45.428Z,97.90
2018-05-02T22:06:13.858Z,97.80
2018-05-02T22:08:42.292Z,98.40
2018-05-02T22:11:10.954Z,97.90
2018-05-02T22:13:40.150Z,98.00
2018-05-02T22:16:08.634Z,98.00
2018-05-02T22:18:37.070Z,98.20
2018-05-02T22:21:05.768Z,98.00
2018-05-02T22:23:34.318Z,98.00
2018-05-02T22:26:02.753Z,98.40
2018-05-02T22:28:31.316Z,98.10
2018-05-02T22:30:59.853Z,97.70
2018-05-02T22:33:29.355Z,97.50
2018-05-02T22:35:57.971Z,97.50
2018-05-02T22:38:26.446Z,97.70
2018-05-02T22:40:55.153Z,97.80
2018-05-02T22:43:23.841Z,97.80
2018-05-02T22:45:52.377Z,97.60
2018-05-02T22:48:20.837Z,97.70
2018-05-02T22:50:49.393Z,97.80
2018-05-02T22:53:17.896Z,97.50
2018-05-02T22:55:46.379Z,97.90
2018-05-02T22:58:14.924Z,97.70
2018-05-02T23:00:43.637Z,97.90
2018-05-02T23:03:12.075Z,97.80
2018-05-02T23:05:40.542Z,97.50
2018-05-02T23:08:08.987Z,97.50
2018-05-02T23:10:37.441Z,97.50
2018-05-02T23:13:06.671Z,97.60
2018-05-02T23:15:35.286Z,97.60
2018-05-02T23:18:03.665Z,98.20
2018-05-02T23:20:32.254Z,97.50
2018-05-02T23:23:00.700Z,97.50
2018-05-02T23:25:29.127Z,97.50
2018-05-02T23:27:58.136Z,97.70
2018-05-02T23:30:27.528Z,97.70
2018-05-02T23:32:56.728Z,97.70
2018-05-02T23:35:25.453Z,97.70
2018-05-02T23:37:54.144Z,97.50
2018-05-02T23:40:23.664Z,97.90
2018-05-02T23:42:53.012Z,97.90
2018-05-02T23:45:21.440Z,97.90
2018-05-02T23:47:50.090Z,97.90
2018-05-02T23:50:18.796Z,97.80
2018-05-02T23:52:47.552Z,98.00
2018-05-02T23:55:15.981Z,97.90
2018-05-02T23:57:44.417Z,97.80
